createdAt,value
2023-03-18T00:00:22.826Z,84.36
2023-03-18T00:01:22.890Z,84.67
2023-03-18T00:02:22.849Z,84.22
2023-03-18T00:03:22.889Z,85.22
2023-03-18T00:04:22.783Z,84.67
2023-03-18T00:05:22.788Z,85.02
2023-03-18T00:06:22.795Z,84.56
2023-03-18T00:07:22.845Z,84.47
2023-03-18T00:08:22.756Z,84.67
2023-03-18T00:09:22.761Z,83.85
2023-03-18T00:10:22.774Z,84.16
2023-03-18T00:11:22.759Z,83.85
2023-03-18T00:12:22.740Z,83.95
2023-03-18T00:13:22.777Z,83.95
2023-03-18T00:14:22.710Z,83.70
2023-03-18T00:15:22.706Z,84.63
2023-03-18T00:16:22.780Z,84.12
2023-03-18T00:17:22.700Z,84.63
2023-03-18T00:18:22.694Z,83.91
2023-03-18T00:19:22.719Z,84.63
2023-03-18T00:20:22.689Z,84.67
2023-03-18T00:21:22.678Z,85.14
2023-03-18T00:22:22.720Z,84.63
2023-03-18T00:23:22.674Z,84.74
2023-03-18T00:24:22.657Z,86.11
2023-03-18T00:25:22.709Z,86.42
2023-03-18T00:26:22.626Z,87.61
2023-03-18T00:27:22.622Z,87.71
2023-03-18T00:28:22.620Z,87.20
2023-03-18T00:29:22.602Z,87.85
2023-03-18T00:30:22.578Z,88.89
2023-03-18T00:31:22.684Z,88.74
2023-03-18T00:32:22.584Z,87.55
2023-03-18T00:33:22.558Z,88.17
2023-03-18T00:34:22.563Z,88.78
2023-03-18T00:35:22.567Z,89.09
2023-03-18T00:36:22.555Z,88.78
2023-03-18T00:37:22.582Z,88.89
2023-03-18T00:38:22.540Z,88.17
2023-03-18T00:39:22.541Z,88.78
2023-03-18T00:40:22.548Z,88.82
2023-03-18T00:41:22.517Z,88.98
2023-03-18T00:42:22.509Z,89.19
2023-03-18T00:43:22.747Z,88.41
2023-03-18T00:44:22.515Z,88.78
2023-03-18T00:45:22.491Z,88.92
2023-03-18T00:46:22.573Z,89.29
2023-03-18T00:47:22.475Z,89.75
2023-03-18T00:48:22.470Z,91.04
2023-03-18T00:49:22.528Z,91.04
2023-03-18T00:50:22.469Z,91.39
2023-03-18T00:51:22.458Z,91.29
2023-03-18T00:52:22.449Z,92.42
2023-03-18T00:53:22.447Z,93.04
2023-03-18T00:54:22.420Z,93.14
2023-03-18T00:55:22.474Z,93.55
2023-03-18T00:56:22.399Z,94.37
2023-03-18T00:57:22.406Z,94.37
2023-03-18T00:58:22.383Z,94.37
2023-03-18T00:59:22.375Z,94.78
2023-03-18T01:00:22.395Z,93.55
2023-03-18T01:01:22.547Z,94.58
2023-03-18T01:02:22.438Z,94.78
2023-03-18T01:03:22.345Z,95.30
2023-03-18T01:04:22.341Z,95.81
2023-03-18T01:05:22.334Z,95.81
2023-03-18T01:06:22.335Z,95.61
2023-03-18T01:07:22.376Z,95.55
2023-03-18T01:08:22.323Z,95.86
2023-03-18T01:09:22.317Z,95.96
2023-03-18T01:10:22.285Z,96.58
2023-03-18T01:11:22.286Z,96.78
2023-03-18T01:12:22.277Z,96.47
2023-03-18T01:13:22.298Z,96.99
2023-03-18T01:14:22.285Z,97.19
2023-03-18T01:15:22.267Z,97.19
2023-03-18T01:16:22.338Z,97.61
2023-03-18T01:17:22.240Z,97.19
2023-03-18T01:18:22.256Z,97.40
2023-03-18T01:19:22.275Z,97.50
2023-03-18T01:20:22.221Z,97.40
2023-03-18T01:21:22.254Z,98.58
2023-03-18T01:22:22.215Z,99.51
2023-03-18T01:23:22.224Z,98.99
2023-03-18T01:24:22.185Z,98.88
2023-03-18T01:25:22.249Z,99.40
2023-03-18T01:26:22.175Z,99.60
2023-03-18T01:27:22.181Z,98.88
2023-03-18T01:28:22.164Z,99.09
2023-03-18T01:29:22.167Z,98.88
2023-03-18T01:30:22.152Z,99.30
2023-03-18T01:31:22.208Z,99.76
2023-03-18T01:32:22.133Z,99.71
2023-03-18T01:33:22.113Z,99.81
2023-03-18T01:34:22.134Z,99.71
2023-03-18T01:35:22.113Z,99.81
2023-03-18T01:36:22.102Z,99.99
2023-03-18T01:38:09.377Z,99.91
2023-03-18T01:39:09.409Z,99.91
2023-03-18T01:40:09.391Z,99.87
2023-03-18T01:41:09.808Z,99.66
2023-03-18T01:42:09.478Z,99.66
2023-03-18T01:43:09.434Z,99.77
2023-03-18T01:44:09.383Z,99.99
2023-03-18T01:45:09.368Z,99.56
2023-03-18T01:46:09.396Z,99.77
2023-03-18T01:47:09.367Z,99.25
2023-03-18T01:48:09.325Z,99.30
2023-03-18T01:49:09.628Z,99.77
2023-03-18T01:50:09.339Z,99.99
2023-03-18T01:51:09.310Z,99.99
2023-03-18T01:52:09.312Z,99.99
2023-03-18T01:53:09.332Z,99.99
2023-03-18T01:54:09.315Z,99.99
2023-03-18T01:55:09.326Z,99.99
2023-03-18T01:56:09.271Z,99.99
2023-03-18T01:57:09.276Z,99.99
2023-03-18T01:58:09.263Z,99.99
2023-03-18T01:59:09.269Z,99.99
2023-03-18T02:00:09.243Z,99.99
2023-03-18T02:01:09.382Z,99.99
2023-03-18T02:02:09.274Z,99.99
2023-03-18T02:03:09.290Z,99.99
2023-03-18T02:04:09.214Z,99.99
2023-03-18T02:05:09.245Z,99.99
2023-03-18T02:06:09.196Z,99.99
2023-03-18T02:07:09.244Z,99.99
2023-03-18T02:08:09.196Z,99.99
2023-03-18T02:09:09.201Z,99.99
2023-03-18T02:10:09.213Z,99.99
2023-03-18T02:11:09.207Z,99.99
2023-03-18T02:12:09.251Z,99.99
2023-03-18T02:13:09.223Z,99.99
2023-03-18T02:14:09.186Z,99.99
2023-03-18T02:15:09.171Z,99.99
2023-03-18T02:16:09.158Z,99.99
2023-03-18T02:17:09.268Z,99.99
2023-03-18T02:18:09.129Z,99.99
2023-03-18T02:19:09.183Z,99.99
2023-03-18T02:20:09.122Z,99.99
2023-03-18T02:21:09.146Z,99.99
2023-03-18T02:22:09.187Z,99.99
2023-03-18T02:23:09.121Z,99.99
2023-03-18T02:24:09.107Z,99.99
2023-03-18T02:25:09.143Z,99.99
2023-03-18T02:26:09.071Z,99.99
2023-03-18T02:27:09.085Z,99.99
2023-03-18T02:28:09.084Z,99.99
2023-03-18T02:29:09.072Z,99.99
2023-03-18T02:30:09.092Z,99.99
2023-03-18T02:31:09.154Z,99.99
2023-03-18T02:32:09.047Z,99.99
2023-03-18T02:33:09.081Z,99.99
2023-03-18T02:34:09.009Z,99.99
2023-03-18T02:35:09.027Z,99.99
2023-03-18T02:36:09.019Z,99.99
2023-03-18T02:37:09.044Z,99.99
2023-03-18T02:38:08.982Z,99.99
2023-03-18T02:39:09.008Z,99.99
2023-03-18T02:40:08.962Z,99.99
2023-03-18T02:41:08.985Z,99.99
2023-03-18T02:42:09.004Z,99.99
2023-03-18T02:43:09.025Z,99.99
2023-03-18T02:44:08.949Z,99.99
2023-03-18T02:45:08.951Z,99.99
2023-03-18T02:46:08.945Z,99.99
2023-03-18T02:47:08.942Z,99.99
2023-03-18T02:48:08.923Z,99.99
2023-03-18T02:49:08.977Z,99.99
2023-03-18T02:50:08.906Z,99.99
2023-03-18T02:51:08.962Z,99.99
2023-03-18T02:52:08.903Z,99.99
2023-03-18T02:53:09.039Z,99.99
2023-03-18T02:54:08.900Z,99.99
2023-03-18T02:55:09.126Z,99.99
2023-03-18T02:56:08.875Z,99.99
2023-03-18T02:57:08.871Z,99.99
2023-03-18T02:58:08.873Z,99.99
2023-03-18T02:59:08.848Z,99.99
2023-03-18T03:00:08.851Z,99.99
2023-03-18T03:01:08.897Z,99.99
2023-03-18T03:02:08.863Z,99.99
2023-03-18T03:03:08.976Z,99.99
2023-03-18T03:04:08.817Z,99.99
2023-03-18T03:05:08.787Z,99.99
2023-03-18T03:06:08.855Z,99.99
2023-03-18T03:07:08.848Z,99.99
2023-03-18T03:08:08.770Z,99.99
2023-03-18T03:09:08.786Z,99.99
2023-03-18T03:10:08.766Z,99.99
2023-03-18T03:11:19.348Z,99.99
2023-03-18T03:12:08.766Z,99.99
2023-03-18T03:13:08.987Z,99.99
2023-03-18T03:14:08.752Z,99.99
2023-03-18T03:15:08.750Z,99.99
2023-03-18T03:16:08.781Z,99.99
2023-03-18T03:17:08.706Z,99.99
2023-03-18T03:18:08.720Z,99.99
2023-03-18T03:19:08.903Z,99.99
2023-03-18T03:20:08.751Z,99.99
2023-03-18T03:21:08.687Z,99.99
2023-03-18T03:22:08.666Z,99.99
2023-03-18T03:23:08.688Z,99.99
2023-03-18T03:24:08.668Z,99.99
2023-03-18T03:25:08.692Z,99.99
2023-03-18T03:26:08.645Z,99.99
2023-03-18T03:27:08.643Z,99.99
2023-03-18T03:28:08.644Z,99.99
2023-03-18T03:29:08.629Z,99.99
2023-03-18T03:30:08.613Z,99.99
2023-03-18T03:31:08.675Z,99.99
2023-03-18T03:32:08.624Z,99.99
2023-03-18T03:33:08.610Z,99.99
2023-03-18T03:34:08.576Z,99.99
2023-03-18T03:35:08.588Z,99.99
2023-03-18T03:36:08.595Z,99.99
2023-03-18T03:37:08.604Z,99.99
2023-03-18T03:38:08.545Z,99.99
2023-03-18T03:39:08.590Z,99.99
2023-03-18T03:40:08.557Z,99.99
2023-03-18T03:41:08.542Z,99.99
2023-03-18T03:42:08.523Z,99.99
2023-03-18T03:43:08.587Z,99.99
2023-03-18T03:44:08.534Z,99.99
2023-03-18T03:45:08.485Z,99.99
2023-03-18T03:46:08.544Z,99.99
2023-03-18T03:47:08.511Z,99.99
2023-03-18T03:48:08.488Z,99.99
2023-03-18T03:49:08.520Z,99.99
2023-03-18T03:50:08.471Z,99.99
2023-03-18T03:51:08.487Z,99.99
2023-03-18T03:52:08.462Z,99.99
2023-03-18T03:53:08.466Z,99.99
2023-03-18T03:54:08.459Z,99.99
2023-03-18T03:55:08.733Z,99.99
2023-03-18T03:56:08.424Z,99.99
2023-03-18T03:57:08.421Z,99.99
2023-03-18T03:58:08.393Z,99.99
2023-03-18T03:59:08.410Z,99.99
2023-03-18T04:00:08.399Z,99.99
2023-03-18T04:01:08.441Z,99.99
2023-03-18T04:02:08.388Z,99.99
2023-03-18T04:03:08.576Z,99.99
2023-03-18T04:04:08.429Z,99.99
2023-03-18T04:05:08.372Z,99.99
2023-03-18T04:06:08.390Z,99.99
2023-03-18T04:07:08.413Z,99.99
2023-03-18T04:08:08.373Z,99.99
2023-03-18T04:09:08.330Z,99.99
2023-03-18T04:10:08.335Z,99.99
2023-03-18T04:11:08.336Z,99.99
2023-03-18T04:12:08.311Z,99.99
2023-03-18T04:13:08.331Z,99.99
2023-03-18T04:14:08.333Z,99.99
2023-03-18T04:15:08.308Z,99.99
2023-03-18T04:16:08.323Z,99.99
2023-03-18T04:17:08.292Z,99.99
2023-03-18T04:18:08.305Z,99.99
2023-03-18T04:19:08.300Z,99.99
2023-03-18T04:20:08.253Z,99.99
2023-03-18T04:21:08.266Z,99.99
2023-03-18T04:22:08.250Z,99.99
2023-03-18T04:23:08.265Z,99.99
2023-03-18T04:24:08.240Z,99.99
2023-03-18T04:25:08.274Z,99.99
2023-03-18T04:26:08.235Z,99.99
2023-03-18T04:27:08.207Z,99.99
2023-03-18T04:28:08.203Z,99.99
2023-03-18T04:29:08.208Z,99.99
2023-03-18T04:30:08.225Z,99.99
2023-03-18T04:31:08.385Z,99.99
2023-03-18T04:32:08.183Z,99.99
2023-03-18T04:33:08.244Z,99.99
2023-03-18T04:34:08.164Z,99.99
2023-03-18T04:35:08.152Z,99.99
2023-03-18T04:36:08.185Z,99.99
2023-03-18T04:37:08.183Z,99.99
2023-03-18T04:38:08.136Z,99.99
2023-03-18T04:39:08.120Z,99.99
2023-03-18T04:40:08.131Z,99.99
2023-03-18T04:41:08.107Z,99.99
2023-03-18T04:42:08.124Z,99.99
2023-03-18T04:43:08.140Z,99.99
2023-03-18T04:44:08.087Z,99.99
2023-03-18T04:45:08.103Z,99.99
2023-03-18T04:46:08.082Z,99.99
2023-03-18T04:47:08.088Z,99.99
2023-03-18T04:48:08.089Z,99.99
2023-03-18T04:49:08.100Z,99.99
2023-03-18T04:50:08.043Z,99.99
2023-03-18T04:51:08.026Z,99.99
2023-03-18T04:52:08.033Z,99.99
2023-03-18T04:53:08.025Z,99.99
2023-03-18T04:54:08.009Z,99.99
2023-03-18T04:55:08.074Z,99.99
2023-03-18T04:56:07.995Z,99.99
2023-03-18T04:57:08.001Z,99.99
2023-03-18T04:58:07.988Z,99.99
2023-03-18T04:59:07.991Z,99.99
2023-03-18T05:00:10.371Z,99.99
2023-03-18T05:01:08.263Z,99.99
2023-03-18T05:02:07.976Z,99.99
2023-03-18T05:03:07.975Z,99.99
2023-03-18T05:04:07.992Z,99.99
2023-03-18T05:05:07.975Z,99.99
2023-03-18T05:06:07.963Z,99.99
2023-03-18T05:07:07.988Z,99.99
2023-03-18T05:08:07.908Z,99.99
2023-03-18T05:09:07.904Z,99.99
2023-03-18T05:10:07.921Z,99.99
2023-03-18T05:11:08.009Z,99.99
2023-03-18T05:12:07.890Z,99.99
2023-03-18T05:13:07.935Z,99.99
2023-03-18T05:14:07.869Z,99.99
2023-03-18T05:15:07.905Z,99.99
2023-03-18T05:16:29.926Z,99.99
2023-03-18T05:17:07.864Z,99.99
2023-03-18T05:18:07.844Z,99.99
2023-03-18T05:19:07.871Z,99.99
2023-03-18T05:20:07.810Z,99.99
2023-03-18T05:21:07.837Z,99.99
2023-03-18T05:22:07.816Z,99.99
2023-03-18T05:23:07.811Z,99.99
2023-03-18T05:24:07.807Z,99.99
2023-03-18T05:25:07.829Z,99.99
2023-03-18T05:26:07.796Z,99.99
2023-03-18T05:27:07.799Z,99.99
2023-03-18T05:28:10.856Z,99.99
2023-03-18T05:29:07.771Z,99.99
2023-03-18T05:30:07.739Z,99.99
2023-03-18T05:31:07.817Z,99.99
2023-03-18T05:32:07.797Z,99.99
2023-03-18T05:33:07.777Z,99.99
2023-03-18T05:34:07.711Z,99.99
2023-03-18T05:35:07.722Z,99.99
2023-03-18T05:36:07.765Z,99.99
2023-03-18T05:37:07.731Z,99.99
2023-03-18T05:38:07.691Z,99.99
2023-03-18T05:39:52.023Z,99.99
2023-03-18T05:40:07.694Z,99.99
2023-03-18T05:41:07.694Z,99.99
2023-03-18T05:42:07.664Z,99.99
2023-03-18T05:43:07.719Z,99.99
2023-03-18T05:44:07.673Z,99.99
2023-03-18T05:45:07.645Z,99.99
2023-03-18T05:46:07.680Z,99.99
2023-03-18T05:47:12.549Z,99.99
2023-03-18T05:48:07.613Z,99.99
2023-03-18T05:49:07.681Z,99.99
2023-03-18T05:50:07.597Z,99.99
2023-03-18T05:51:07.579Z,99.99
2023-03-18T05:52:07.577Z,99.99
2023-03-18T05:53:07.569Z,99.99
2023-03-18T05:54:07.579Z,99.99
2023-03-18T05:55:07.593Z,99.99
2023-03-18T05:56:07.571Z,99.99
2023-03-18T05:57:07.569Z,99.99
2023-03-18T05:58:07.535Z,99.99
2023-03-18T05:59:07.532Z,99.99
2023-03-18T06:00:23.713Z,99.99
2023-03-18T06:01:07.561Z,99.99
2023-03-18T06:02:07.529Z,99.99
2023-03-18T06:03:07.525Z,99.99
2023-03-18T06:04:07.489Z,99.99
2023-03-18T06:05:07.483Z,99.99
2023-03-18T06:06:07.474Z,99.99
2023-03-18T06:07:07.763Z,99.99
2023-03-18T06:08:07.476Z,99.99
2023-03-18T06:09:07.456Z,99.99
2023-03-18T06:10:07.507Z,99.99
2023-03-18T06:11:07.434Z,99.99
2023-03-18T06:12:07.427Z,99.99
2023-03-18T06:13:07.461Z,99.99
2023-03-18T06:14:07.423Z,99.99
2023-03-18T06:15:07.399Z,99.99
2023-03-18T06:16:07.532Z,99.99
2023-03-18T06:17:07.418Z,99.99
2023-03-18T06:18:07.377Z,99.99
2023-03-18T06:19:07.410Z,99.99
2023-03-18T06:20:07.375Z,99.99
2023-03-18T06:21:07.397Z,99.99
2023-03-18T06:22:07.352Z,99.99
2023-03-18T06:23:07.358Z,99.99
2023-03-18T06:24:07.350Z,99.99
2023-03-18T06:25:07.374Z,99.99
2023-03-18T06:26:07.313Z,99.99
2023-03-18T06:27:07.326Z,99.99
2023-03-18T06:28:07.316Z,99.99
2023-03-18T06:29:07.459Z,99.99
2023-03-18T06:30:07.318Z,99.99
2023-03-18T06:31:07.399Z,99.99
2023-03-18T06:32:07.310Z,99.99
2023-03-18T06:33:07.360Z,99.99
2023-03-18T06:34:07.272Z,99.99
2023-03-18T06:35:07.283Z,99.99
2023-03-18T06:36:07.288Z,99.99
2023-03-18T06:37:07.336Z,99.99
2023-03-18T06:38:07.251Z,99.99
2023-03-18T06:39:07.244Z,99.99
2023-03-18T06:40:07.235Z,99.99
2023-03-18T06:41:07.195Z,99.99
2023-03-18T06:42:07.218Z,99.99
2023-03-18T06:43:07.254Z,99.99
2023-03-18T06:44:07.202Z,99.99
2023-03-18T06:45:07.186Z,99.99
2023-03-18T06:46:07.235Z,99.99
2023-03-18T06:47:07.206Z,99.99
2023-03-18T06:48:07.157Z,99.99
2023-03-18T06:49:07.207Z,99.99
2023-03-18T06:50:07.146Z,99.99
2023-03-18T06:51:07.144Z,99.99
2023-03-18T06:52:07.142Z,99.99
2023-03-18T06:53:07.124Z,99.99
2023-03-18T06:54:07.139Z,99.99
2023-03-18T06:55:07.154Z,99.99
2023-03-18T06:56:07.109Z,99.99
2023-03-18T06:57:07.111Z,99.99
2023-03-18T06:58:07.132Z,99.99
2023-03-18T06:59:07.105Z,99.99
2023-03-18T07:00:07.104Z,99.99
2023-03-18T07:01:07.210Z,99.99
2023-03-18T07:02:07.085Z,99.99
2023-03-18T07:03:07.055Z,99.99
2023-03-18T07:04:07.238Z,99.99
2023-03-18T07:05:07.028Z,99.99
2023-03-18T07:06:07.025Z,99.99
2023-03-18T07:07:07.055Z,99.99
2023-03-18T07:08:07.041Z,99.99
2023-03-18T07:09:07.025Z,99.99
2023-03-18T07:10:06.980Z,99.99
2023-03-18T07:11:06.983Z,99.99
2023-03-18T07:12:07.036Z,99.99
2023-03-18T07:13:07.408Z,99.99
2023-03-18T07:14:06.965Z,99.99
2023-03-18T07:15:06.971Z,99.99
2023-03-18T07:16:07.061Z,99.99
2023-03-18T07:17:06.949Z,99.99
2023-03-18T07:18:06.944Z,99.99
2023-03-18T07:19:07.003Z,99.99
2023-03-18T07:20:06.951Z,99.99
2023-03-18T07:21:06.922Z,99.99
2023-03-18T07:22:06.934Z,99.99
2023-03-18T07:23:06.949Z,99.99
2023-03-18T07:24:06.885Z,99.99
2023-03-18T07:25:06.961Z,99.99
2023-03-18T07:26:06.968Z,99.99
2023-03-18T07:27:06.962Z,99.99
2023-03-18T07:28:06.872Z,99.99
2023-03-18T07:29:06.933Z,99.99
2023-03-18T07:30:06.893Z,99.99
2023-03-18T07:31:06.979Z,99.73
2023-03-18T07:32:06.896Z,99.63
2023-03-18T07:33:06.953Z,99.52
2023-03-18T07:34:06.823Z,99.52
2023-03-18T07:35:06.802Z,99.99
2023-03-18T07:36:06.897Z,99.99
2023-03-18T07:37:06.977Z,99.95
2023-03-18T07:38:06.799Z,99.28
2023-03-18T07:39:06.822Z,99.22
2023-03-18T07:40:06.813Z,98.77
2023-03-18T07:41:06.793Z,98.25
2023-03-18T07:42:06.770Z,97.23
2023-03-18T07:43:06.873Z,96.92
2023-03-18T07:44:06.773Z,96.92
2023-03-18T07:45:06.738Z,97.49
2023-03-18T07:46:06.778Z,97.19
2023-03-18T07:47:06.741Z,98.42
2023-03-18T07:48:06.733Z,98.78
2023-03-18T07:49:06.733Z,97.45
2023-03-18T07:50:06.747Z,96.89
2023-03-18T07:51:06.698Z,96.48
2023-03-18T07:52:06.696Z,97.20
2023-03-18T07:53:06.700Z,96.79
2023-03-18T07:54:06.710Z,95.36
2023-03-18T07:55:06.730Z,96.54
2023-03-18T07:56:06.650Z,96.33
2023-03-18T07:57:06.763Z,96.39
2023-03-18T07:58:06.728Z,95.67
2023-03-18T07:59:06.680Z,97.62
2023-03-18T08:00:06.626Z,96.14
2023-03-18T08:01:06.751Z,94.81
2023-03-18T08:02:06.653Z,92.21
2023-03-18T08:03:06.605Z,90.49
2023-03-18T08:04:06.674Z,89.88
2023-03-18T08:05:06.614Z,90.08
2023-03-18T08:06:06.607Z,90.70
2023-03-18T08:07:06.630Z,90.29
2023-03-18T08:08:06.577Z,89.47
2023-03-18T08:09:06.563Z,89.69
2023-03-18T08:10:06.570Z,88.06
2023-03-18T08:11:06.574Z,88.14
2023-03-18T08:12:06.560Z,89.82
2023-03-18T08:13:06.602Z,91.76
2023-03-18T08:14:06.518Z,92.47
2023-03-18T08:15:06.525Z,90.53
2023-03-18T08:16:06.605Z,90.33
2023-03-18T08:17:06.560Z,90.19
2023-03-18T08:18:09.181Z,90.86
2023-03-18T08:19:07.104Z,90.45
2023-03-18T08:20:06.522Z,89.67
2023-03-18T08:21:06.479Z,88.55
2023-03-18T08:22:06.491Z,89.23
2023-03-18T08:23:06.487Z,89.32
2023-03-18T08:24:06.457Z,88.41
2023-03-18T08:25:06.495Z,89.84
2023-03-18T08:26:06.462Z,88.41
2023-03-18T08:27:06.422Z,88.71
2023-03-18T08:28:06.408Z,89.96
2023-03-18T08:29:06.414Z,89.55
2023-03-18T08:30:06.429Z,88.28
2023-03-18T08:31:06.536Z,88.14
2023-03-18T08:32:06.375Z,88.24
2023-03-18T08:33:06.464Z,86.41
2023-03-18T08:34:06.366Z,86.37
2023-03-18T08:35:06.382Z,84.17
2023-03-18T08:36:06.384Z,84.11
2023-03-18T08:37:06.400Z,83.80
2023-03-18T08:38:06.338Z,85.13
2023-03-18T08:39:06.330Z,84.72
2023-03-18T08:40:06.348Z,84.92
2023-03-18T08:41:06.340Z,85.84
2023-03-18T08:42:06.320Z,85.77
2023-03-18T08:43:06.385Z,84.82
2023-03-18T08:44:06.312Z,86.55
2023-03-18T08:45:06.288Z,85.43
2023-03-18T08:46:06.318Z,84.51
2023-03-18T08:47:06.279Z,85.39
2023-03-18T08:48:06.276Z,84.74
2023-03-18T08:49:06.314Z,83.92
2023-03-18T08:50:06.279Z,85.92
2023-03-18T08:51:06.249Z,81.58
2023-03-18T08:52:06.245Z,82.97
2023-03-18T08:53:06.284Z,83.89
2023-03-18T08:54:06.236Z,82.76
2023-03-18T08:55:06.253Z,83.37
2023-03-18T08:56:06.208Z,83.11
2023-03-18T08:57:06.228Z,85.61
2023-03-18T08:58:06.187Z,82.93
2023-03-18T08:59:06.199Z,80.99
2023-03-18T09:00:06.193Z,80.69
2023-03-18T09:01:06.264Z,80.38
2023-03-18T09:02:06.267Z,79.30
2023-03-18T09:03:06.203Z,80.11
2023-03-18T09:04:06.176Z,80.59
2023-03-18T09:05:06.137Z,79.02
2023-03-18T09:06:06.155Z,78.62
2023-03-18T09:07:06.216Z,77.26
2023-03-18T09:08:06.122Z,76.41
2023-03-18T09:09:06.117Z,77.70
2023-03-18T09:10:06.148Z,75.87
2023-03-18T09:11:06.090Z,76.44
2023-03-18T09:12:06.111Z,74.71
2023-03-18T09:13:06.129Z,74.41
2023-03-18T09:14:06.092Z,74.85
2023-03-18T09:15:06.108Z,74.44
2023-03-18T09:16:06.057Z,74.78
2023-03-18T09:17:06.129Z,72.75
2023-03-18T09:18:11.414Z,74.31
2023-03-18T09:19:07.553Z,74.85
2023-03-18T09:20:06.050Z,73.06
2023-03-18T09:21:06.066Z,72.58
2023-03-18T09:22:06.038Z,70.28
2023-03-18T09:23:06.008Z,69.88
2023-03-18T09:24:07.497Z,72.48
2023-03-18T09:25:06.057Z,71.37
2023-03-18T09:26:05.982Z,69.31
2023-03-18T09:27:05.967Z,70.12
2023-03-18T09:28:05.981Z,70.56
2023-03-18T09:29:05.990Z,71.09
2023-03-18T09:30:06.987Z,73.46
2023-03-18T09:31:06.145Z,70.29
2023-03-18T09:32:05.973Z,71.53
2023-03-18T09:33:06.202Z,68.97
2023-03-18T09:34:05.920Z,68.77
2023-03-18T09:35:05.935Z,67.72
2023-03-18T09:36:05.953Z,69.95
2023-03-18T09:37:05.937Z,69.61
2023-03-18T09:38:05.899Z,66.88
2023-03-18T09:39:05.918Z,67.25
2023-03-18T09:40:05.916Z,67.39
2023-03-18T09:41:05.969Z,67.15
2023-03-18T09:42:05.866Z,68.90
2023-03-18T09:43:05.932Z,68.90
2023-03-18T09:44:05.863Z,67.93
2023-03-18T09:45:05.845Z,69.31
2023-03-18T09:46:06.234Z,68.77
2023-03-18T09:47:06.084Z,67.32
2023-03-18T09:48:05.866Z,67.18
2023-03-18T09:49:05.854Z,67.72
2023-03-18T09:50:05.817Z,68.87
2023-03-18T09:51:05.817Z,66.71
2023-03-18T09:52:05.837Z,68.30
2023-03-18T09:53:05.784Z,66.50
2023-03-18T09:54:05.778Z,67.05
2023-03-18T09:55:05.858Z,67.29
2023-03-18T09:56:05.755Z,66.92
2023-03-18T09:57:05.780Z,65.88
2023-03-18T09:58:05.757Z,65.44
2023-03-18T09:59:06.169Z,63.82
2023-03-18T10:00:05.772Z,64.23
2023-03-18T10:01:05.801Z,64.23
2023-03-18T10:02:05.748Z,64.30
2023-03-18T10:03:06.589Z,63.73
2023-03-18T10:04:05.782Z,61.21
2023-03-18T10:05:05.709Z,62.22
2023-03-18T10:06:05.734Z,61.59
2023-03-18T10:07:05.744Z,61.39
2023-03-18T10:08:05.698Z,61.61
2023-03-18T10:09:05.685Z,61.21
2023-03-18T10:10:05.672Z,61.53
2023-03-18T10:11:05.698Z,60.29
2023-03-18T10:12:05.665Z,61.63
2023-03-18T10:13:05.667Z,60.96
2023-03-18T10:14:05.637Z,60.75
2023-03-18T10:15:05.664Z,60.29
2023-03-18T10:16:05.673Z,60.06
2023-03-18T10:17:05.603Z,58.22
2023-03-18T10:18:05.626Z,59.39
2023-03-18T10:19:05.627Z,58.05
2023-03-18T10:20:05.609Z,58.35
2023-03-18T10:21:05.614Z,59.94
2023-03-18T10:22:05.586Z,58.42
2023-03-18T10:23:05.576Z,58.31
2023-03-18T10:24:05.571Z,60.83
2023-03-18T10:25:06.408Z,60.88
2023-03-18T10:26:05.600Z,61.69
2023-03-18T10:27:05.537Z,61.59
2023-03-18T10:28:05.540Z,60.35
2023-03-18T10:29:05.521Z,62.04
2023-03-18T10:30:05.572Z,59.76
2023-03-18T10:31:05.607Z,58.15
2023-03-18T10:32:05.519Z,58.35
2023-03-18T10:33:05.538Z,58.80
2023-03-18T10:34:05.497Z,60.71
2023-03-18T10:35:05.502Z,57.82
2023-03-18T10:36:05.539Z,59.28
2023-03-18T10:37:05.515Z,60.17
2023-03-18T10:38:05.481Z,62.26
2023-03-18T10:39:05.442Z,59.19
2023-03-18T10:40:05.450Z,57.32
2023-03-18T10:41:05.461Z,60.57
2023-03-18T10:42:05.430Z,57.22
2023-03-18T10:43:05.506Z,56.38
2023-03-18T10:44:05.425Z,56.69
2023-03-18T10:45:05.429Z,57.39
2023-03-18T10:46:05.464Z,57.37
2023-03-18T10:47:05.538Z,56.43
2023-03-18T10:48:06.187Z,56.13
2023-03-18T10:49:05.439Z,55.76
2023-03-18T10:50:05.358Z,55.83
2023-03-18T10:51:05.372Z,56.96
2023-03-18T10:52:05.373Z,57.04
2023-03-18T10:53:05.384Z,55.66
2023-03-18T10:54:05.329Z,56.63
2023-03-18T10:55:05.394Z,55.71
2023-03-18T10:56:05.329Z,55.98
2023-03-18T10:57:05.322Z,56.48
2023-03-18T10:58:05.321Z,55.71
2023-03-18T10:59:05.317Z,55.86
2023-03-18T11:00:05.295Z,57.26
2023-03-18T11:01:05.359Z,56.06
2023-03-18T11:02:05.441Z,57.29
2023-03-18T11:03:05.315Z,58.05
2023-03-18T11:04:05.271Z,57.55
2023-03-18T11:05:05.307Z,58.58
2023-03-18T11:06:05.270Z,60.16
2023-03-18T11:07:05.307Z,57.09
2023-03-18T11:08:05.398Z,56.06
2023-03-18T11:09:05.253Z,55.73
2023-03-18T11:10:05.306Z,56.69
2023-03-18T11:11:05.261Z,56.41
2023-03-18T11:12:05.223Z,57.55
2023-03-18T11:13:05.268Z,58.35
2023-03-18T11:14:05.221Z,58.15
2023-03-18T11:15:05.198Z,57.92
2023-03-18T11:16:05.254Z,58.65
2023-03-18T11:17:05.192Z,59.60
2023-03-18T11:18:05.230Z,57.91
2023-03-18T11:19:05.224Z,55.71
2023-03-18T11:20:05.221Z,55.88
2023-03-18T11:21:05.196Z,58.05
2023-03-18T11:22:05.315Z,58.98
2023-03-18T11:23:05.132Z,57.85
2023-03-18T11:24:05.105Z,59.96
2023-03-18T11:25:05.163Z,58.25
2023-03-18T11:26:05.108Z,59.72
2023-03-18T11:27:05.118Z,58.81
2023-03-18T11:28:05.109Z,58.35
2023-03-18T11:29:05.128Z,60.16
2023-03-18T11:30:05.086Z,58.41
2023-03-18T11:31:05.593Z,60.08
2023-03-18T11:32:05.079Z,59.04
2023-03-18T11:33:05.113Z,59.56
2023-03-18T11:34:05.050Z,57.59
2023-03-18T11:35:05.055Z,56.46
2023-03-18T11:36:05.059Z,55.18
2023-03-18T11:37:05.032Z,54.85
2023-03-18T11:38:05.026Z,54.22
2023-03-18T11:39:04.992Z,52.59
2023-03-18T11:40:04.998Z,54.80
2023-03-18T11:41:04.984Z,56.71
2023-03-18T11:42:04.973Z,55.35
2023-03-18T11:43:05.005Z,53.62
2023-03-18T11:44:04.986Z,51.39
2023-03-18T11:45:04.940Z,51.57
2023-03-18T11:46:04.958Z,52.82
2023-03-18T11:47:04.992Z,52.69
2023-03-18T11:48:04.930Z,51.92
2023-03-18T11:49:04.973Z,52.22
2023-03-18T11:50:04.909Z,53.72
2023-03-18T11:51:04.890Z,51.12
2023-03-18T11:52:04.907Z,51.69
2023-03-18T11:53:04.878Z,51.59
2023-03-18T11:54:04.906Z,51.52
2023-03-18T11:55:04.937Z,49.90
2023-03-18T11:56:04.883Z,52.32
2023-03-18T11:57:04.874Z,55.08
2023-03-18T11:58:04.848Z,53.80
2023-03-18T11:59:04.868Z,52.49
2023-03-18T12:00:04.835Z,51.77
2023-03-18T12:01:04.877Z,53.57
2023-03-18T12:02:04.881Z,54.06
2023-03-18T12:03:04.813Z,50.37
2023-03-18T12:04:04.820Z,51.12
2023-03-18T12:05:04.846Z,51.87
2023-03-18T12:06:04.807Z,51.87
2023-03-18T12:07:04.849Z,53.67
2023-03-18T12:08:04.812Z,52.97
2023-03-18T12:09:04.779Z,53.72
2023-03-18T12:10:04.787Z,55.45
2023-03-18T12:11:04.770Z,54.77
2023-03-18T12:12:04.793Z,54.70
2023-03-18T12:13:04.805Z,56.16
2023-03-18T12:14:04.733Z,57.77
2023-03-18T12:15:04.777Z,57.72
2023-03-18T12:16:04.754Z,58.25
2023-03-18T12:17:04.716Z,57.55
2023-03-18T12:18:04.704Z,58.02
2023-03-18T12:19:04.732Z,57.22
2023-03-18T12:20:04.713Z,58.12
2023-03-18T12:21:04.736Z,57.87
2023-03-18T12:22:04.753Z,57.08
2023-03-18T12:23:04.756Z,55.40
2023-03-18T12:24:04.665Z,52.22
2023-03-18T12:25:04.702Z,51.77
2023-03-18T12:26:04.709Z,53.77
2023-03-18T12:27:04.687Z,51.64
2023-03-18T12:28:04.660Z,53.72
2023-03-18T12:29:04.649Z,52.07
2023-03-18T12:30:04.629Z,51.02
2023-03-18T12:31:04.689Z,51.29
2023-03-18T12:32:04.683Z,50.99
2023-03-18T12:33:04.609Z,49.99
2023-03-18T12:34:04.607Z,51.44
2023-03-18T12:35:04.616Z,51.84
2023-03-18T12:36:04.699Z,51.46
2023-03-18T12:37:04.987Z,51.29
2023-03-18T12:38:04.571Z,48.13
2023-03-18T12:39:04.592Z,49.85
2023-03-18T12:40:04.582Z,50.20
2023-03-18T12:41:04.546Z,49.62
2023-03-18T12:42:04.558Z,53.77
2023-03-18T12:43:04.587Z,54.05
2023-03-18T12:44:04.547Z,50.22
2023-03-18T12:45:04.552Z,51.25
2023-03-18T12:46:04.557Z,51.72
2023-03-18T12:47:04.503Z,50.72
2023-03-18T12:48:04.568Z,50.44
2023-03-18T12:49:04.570Z,52.17
2023-03-18T12:50:04.473Z,52.37
2023-03-18T12:51:04.537Z,55.18
2023-03-18T12:52:04.471Z,57.45
2023-03-18T12:53:04.555Z,57.68